sensor_id;sensor_type;location;lat;lon;timestamp;pressure;altitude;pressure_sealevel;temperature;humidity
20368;BME280;10343;52.402;9.796;2023-02-28T00:01:23;102567.69;;;7.47;49.58
20368;BME280;10343;52.402;9.796;2023-02-28T00:03:53;102572.84;;;7.41;49.72
20368;BME280;10343;52.402;9.796;2023-02-28T00:06:21;102579.63;;;6.88;51.07
20368;BME280;10343;52.402;9.796;2023-02-28T00:08:49;102576.63;;;7.11;50.86
20368;BME280;10343;52.402;9.796;2023-02-28T00:11:18;102577.75;;;7.22;50.50
20368;BME280;10343;52.402;9.796;2023-02-28T00:13:46;102571.41;;;7.14;50.93
20368;BME280;10343;52.402;9.796;2023-02-28T00:16:16;102573.25;;;7.18;50.75
20368;BME280;10343;52.402;9.796;2023-02-28T00:18:45;102572.53;;;7.25;50.39
20368;BME280;10343;52.402;9.796;2023-02-28T00:21:15;102565.84;;;7.00;51.20
20368;BME280;10343;52.402;9.796;2023-02-28T00:23:44;102567.28;;;7.27;50.47
20368;BME280;10343;52.402;9.796;2023-02-28T00:26:12;102567.31;;;7.28;50.79
20368;BME280;10343;52.402;9.796;2023-02-28T00:28:44;102570.34;;;7.06;51.10
20368;BME280;10343;52.402;9.796;2023-02-28T00:31:12;102565.16;;;7.10;50.91
20368;BME280;10343;52.402;9.796;2023-02-28T00:33:39;102561.84;;;7.18;50.79
20368;BME280;10343;52.402;9.796;2023-02-28T00:36:10;102570.75;;;7.26;50.58
20368;BME280;10343;52.402;9.796;2023-02-28T00:38:40;102552.91;;;7.55;50.17
20368;BME280;10343;52.402;9.796;2023-02-28T00:41:08;102561.06;;;7.69;49.67
20368;BME280;10343;52.402;9.796;2023-02-28T00:43:37;102561.16;;;7.75;49.60
20368;BME280;10343;52.402;9.796;2023-02-28T00:46:06;102563.88;;;7.77;49.07
20368;BME280;10343;52.402;9.796;2023-02-28T00:48:34;102551.78;;;7.91;49.21
20368;BME280;10343;52.402;9.796;2023-02-28T00:51:03;102559.53;;;7.35;49.85
20368;BME280;10343;52.402;9.796;2023-02-28T00:53:31;102563.03;;;6.92;51.12
20368;BME280;10343;52.402;9.796;2023-02-28T00:56:01;102568.25;;;6.89;51.79
20368;BME280;10343;52.402;9.796;2023-02-28T00:58:30;102563.97;;;7.37;50.60
20368;BME280;10343;52.402;9.796;2023-02-28T01:00:59;102566.06;;;7.11;51.38
20368;BME280;10343;52.402;9.796;2023-02-28T01:03:28;102571.50;;;6.79;51.72
20368;BME280;10343;52.402;9.796;2023-02-28T01:05:57;102565.44;;;6.83;51.72
20368;BME280;10343;52.402;9.796;2023-02-28T01:08:26;102569.13;;;6.90;51.75
20368;BME280;10343;52.402;9.796;2023-02-28T01:10:54;102573.47;;;6.88;52.02
20368;BME280;10343;52.402;9.796;2023-02-28T01:13:23;102568.66;;;6.68;52.39
20368;BME280;10343;52.402;9.796;2023-02-28T01:15:54;102571.09;;;6.99;51.89
20368;BME280;10343;52.402;9.796;2023-02-28T01:18:24;102569.09;;;6.88;52.23
20368;BME280;10343;52.402;9.796;2023-02-28T01:20:52;102566.66;;;6.59;52.81
20368;BME280;10343;52.402;9.796;2023-02-28T01:23:22;102572.69;;;6.54;52.76
20368;BME280;10343;52.402;9.796;2023-02-28T01:25:50;102572.94;;;6.65;52.81
20368;BME280;10343;52.402;9.796;2023-02-28T01:28:18;102573.59;;;6.54;52.83
20368;BME280;10343;52.402;9.796;2023-02-28T01:30:51;102573.78;;;6.25;53.35
20368;BME280;10343;52.402;9.796;2023-02-28T01:33:19;102570.50;;;6.36;53.91
20368;BME280;10343;52.402;9.796;2023-02-28T01:35:47;102572.41;;;6.41;53.56
20368;BME280;10343;52.402;9.796;2023-02-28T01:38:15;102571.94;;;6.21;53.83
20368;BME280;10343;52.402;9.796;2023-02-28T01:40:49;102574.38;;;6.50;53.49
20368;BME280;10343;52.402;9.796;2023-02-28T01:43:22;102568.75;;;6.73;53.18
20368;BME280;10343;52.402;9.796;2023-02-28T01:45:53;102565.72;;;6.56;53.15
20368;BME280;10343;52.402;9.796;2023-02-28T01:48:24;102564.09;;;6.62;53.14
20368;BME280;10343;52.402;9.796;2023-02-28T01:50:55;102562.66;;;6.39;53.63
20368;BME280;10343;52.402;9.796;2023-02-28T01:53:32;102565.03;;;6.65;52.84
20368;BME280;10343;52.402;9.796;2023-02-28T01:56:04;102561.75;;;7.14;51.68
20368;BME280;10343;52.402;9.796;2023-02-28T01:58:35;102563.81;;;6.88;51.94
20368;BME280;10343;52.402;9.796;2023-02-28T02:01:05;102561.06;;;7.23;51.66
20368;BME280;10343;52.402;9.796;2023-02-28T02:03:35;102567.50;;;6.96;52.11
20368;BME280;10343;52.402;9.796;2023-02-28T02:06:04;102560.53;;;6.99;51.71
20368;BME280;10343;52.402;9.796;2023-02-28T02:08:32;102558.25;;;6.76;52.27
20368;BME280;10343;52.402;9.796;2023-02-28T02:11:01;102555.78;;;6.82;51.88
20368;BME280;10343;52.402;9.796;2023-02-28T02:16:44;102560.19;;;6.83;51.85
20368;BME280;10343;52.402;9.796;2023-02-28T02:19:39;102552.78;;;6.67;52.79
20368;BME280;10343;52.402;9.796;2023-02-28T02:22:35;102553.44;;;6.56;53.35
20368;BME280;10343;52.402;9.796;2023-02-28T02:28:26;102550.50;;;6.44;53.12
20368;BME280;10343;52.402;9.796;2023-02-28T02:34:20;102552.06;;;6.36;53.90
20368;BME280;10343;52.402;9.796;2023-02-28T02:36:57;102542.22;;;6.27;53.39
20368;BME280;10343;52.402;9.796;2023-02-28T02:39:31;102538.97;;;6.39;53.25
20368;BME280;10343;52.402;9.796;2023-02-28T02:42:04;102538.75;;;5.96;54.51
20368;BME280;10343;52.402;9.796;2023-02-28T02:44:42;102541.38;;;5.96;54.67
20368;BME280;10343;52.402;9.796;2023-02-28T02:47:14;102545.41;;;6.15;53.97
20368;BME280;10343;52.402;9.796;2023-02-28T02:49:48;102548.69;;;6.41;52.88
20368;BME280;10343;52.402;9.796;2023-02-28T02:52:22;102546.56;;;6.26;52.85
20368;BME280;10343;52.402;9.796;2023-02-28T02:54:54;102547.66;;;6.00;53.45
20368;BME280;10343;52.402;9.796;2023-02-28T02:57:25;102547.69;;;6.01;53.65
20368;BME280;10343;52.402;9.796;2023-02-28T02:59:58;102547.38;;;5.90;53.87
20368;BME280;10343;52.402;9.796;2023-02-28T03:02:32;102551.31;;;6.05;53.64
20368;BME280;10343;52.402;9.796;2023-02-28T03:05:04;102552.78;;;6.67;52.11
20368;BME280;10343;52.402;9.796;2023-02-28T03:07:34;102555.56;;;6.73;52.42
20368;BME280;10343;52.402;9.796;2023-02-28T03:10:02;102552.06;;;6.72;51.46
20368;BME280;10343;52.402;9.796;2023-02-28T03:12:36;102549.50;;;6.77;51.35
20368;BME280;10343;52.402;9.796;2023-02-28T03:15:12;102546.16;;;6.84;51.25
20368;BME280;10343;52.402;9.796;2023-02-28T03:17:54;102541.59;;;6.39;52.07
20368;BME280;10343;52.402;9.796;2023-02-28T03:20:34;102538.09;;;6.03;53.20
20368;BME280;10343;52.402;9.796;2023-02-28T03:23:10;102549.66;;;6.10;52.76
20368;BME280;10343;52.402;9.796;2023-02-28T03:25:49;102543.09;;;5.94;53.67
20368;BME280;10343;52.402;9.796;2023-02-28T03:28:27;102542.41;;;6.00;53.29
20368;BME280;10343;52.402;9.796;2023-02-28T03:31:01;102540.06;;;6.12;52.81
20368;BME280;10343;52.402;9.796;2023-02-28T03:33:38;102540.59;;;5.99;53.26
20368;BME280;10343;52.402;9.796;2023-02-28T03:36:12;102545.81;;;5.64;54.04
20368;BME280;10343;52.402;9.796;2023-02-28T03:38:44;102541.22;;;5.56;54.37
20368;BME280;10343;52.402;9.796;2023-02-28T03:41:15;102549.53;;;5.40;54.81
20368;BME280;10343;52.402;9.796;2023-02-28T03:43:49;102539.97;;;5.42;54.72
20368;BME280;10343;52.402;9.796;2023-02-28T03:46:21;102541.13;;;5.53;54.35
20368;BME280;10343;52.402;9.796;2023-02-28T03:49:08;102544.59;;;5.52;54.72
20368;BME280;10343;52.402;9.796;2023-02-28T03:51:42;102539.47;;;5.55;55.07
20368;BME280;10343;52.402;9.796;2023-02-28T03:54:13;102540.56;;;5.64;54.25
20368;BME280;10343;52.402;9.796;2023-02-28T03:56:50;102544.28;;;5.72;54.18
20368;BME280;10343;52.402;9.796;2023-02-28T03:59:23;102538.69;;;5.59;54.49
20368;BME280;10343;52.402;9.796;2023-02-28T04:01:54;102544.00;;;5.61;53.83
20368;BME280;10343;52.402;9.796;2023-02-28T04:04:25;102547.84;;;5.74;53.90
20368;BME280;10343;52.402;9.796;2023-02-28T04:07:01;102543.91;;;5.58;53.65
20368;BME280;10343;52.402;9.796;2023-02-28T04:09:29;102540.09;;;5.78;52.74
20368;BME280;10343;52.402;9.796;2023-02-28T04:11:57;102542.03;;;5.87;52.74
20368;BME280;10343;52.402;9.796;2023-02-28T04:14:25;102537.88;;;5.95;52.72
20368;BME280;10343;52.402;9.796;2023-02-28T04:16:53;102552.97;;;5.69;53.40
20368;BME280;10343;52.402;9.796;2023-02-28T04:19:21;102552.25;;;5.75;53.34
20368;BME280;10343;52.402;9.796;2023-02-28T04:21:51;102557.19;;;5.63;53.67
20368;BME280;10343;52.402;9.796;2023-02-28T04:24:21;102551.84;;;5.59;54.02
20368;BME280;10343;52.402;9.796;2023-02-28T04:26:51;102555.31;;;5.58;53.37
20368;BME280;10343;52.402;9.796;2023-02-28T04:29:21;102553.94;;;5.73;53.08
20368;BME280;10343;52.402;9.796;2023-02-28T04:31:49;102554.25;;;5.52;52.76
20368;BME280;10343;52.402;9.796;2023-02-28T04:34:17;102558.94;;;5.32;52.65
20368;BME280;10343;52.402;9.796;2023-02-28T04:36:46;102564.34;;;5.36;52.72
20368;BME280;10343;52.402;9.796;2023-02-28T04:39:34;102559.75;;;4.99;52.86
20368;BME280;10343;52.402;9.796;2023-02-28T04:42:02;102555.75;;;5.42;52.08
20368;BME280;10343;52.402;9.796;2023-02-28T04:44:30;102560.06;;;5.40;52.15
20368;BME280;10343;52.402;9.796;2023-02-28T04:46:59;102564.34;;;5.36;51.82
20368;BME280;10343;52.402;9.796;2023-02-28T04:49:27;102568.69;;;5.36;51.47
20368;BME280;10343;52.402;9.796;2023-02-28T04:51:55;102565.41;;;4.82;52.82
20368;BME280;10343;52.402;9.796;2023-02-28T04:54:23;102564.41;;;4.51;53.58
20368;BME280;10343;52.402;9.796;2023-02-28T04:56:52;102565.06;;;4.44;53.86
20368;BME280;10343;52.402;9.796;2023-02-28T04:59:21;102564.56;;;4.85;53.00
20368;BME280;10343;52.402;9.796;2023-02-28T05:01:49;102562.28;;;4.96;52.75
20368;BME280;10343;52.402;9.796;2023-02-28T05:04:17;102565.91;;;4.99;52.72
20368;BME280;10343;52.402;9.796;2023-02-28T05:06:45;102561.53;;;4.71;52.94
20368;BME280;10343;52.402;9.796;2023-02-28T05:09:13;102558.81;;;4.97;52.00
20368;BME280;10343;52.402;9.796;2023-02-28T05:11:41;102567.03;;;5.07;51.96
20368;BME280;10343;52.402;9.796;2023-02-28T05:14:13;102561.81;;;4.80;52.16
20368;BME280;10343;52.402;9.796;2023-02-28T05:16:41;102564.78;;;4.62;52.70
20368;BME280;10343;52.402;9.796;2023-02-28T05:19:09;102568.28;;;5.20;51.48
20368;BME280;10343;52.402;9.796;2023-02-28T05:21:39;102567.75;;;4.73;51.80
20368;BME280;10343;52.402;9.796;2023-02-28T05:24:10;102570.28;;;4.99;52.05
20368;BME280;10343;52.402;9.796;2023-02-28T05:26:41;102565.09;;;4.73;51.97
20368;BME280;10343;52.402;9.796;2023-02-28T05:29:10;102572.59;;;4.88;52.11
20368;BME280;10343;52.402;9.796;2023-02-28T05:31:38;102568.28;;;5.20;51.35
20368;BME280;10343;52.402;9.796;2023-02-28T05:34:06;102571.44;;;5.08;51.87
20368;BME280;10343;52.402;9.796;2023-02-28T05:36:36;102591.91;;;3.11;56.88
20368;BME280;10343;52.402;9.796;2023-02-28T05:39:05;102588.00;;;3.71;57.08
20368;BME280;10343;52.402;9.796;2023-02-28T05:41:33;102591.03;;;4.35;55.91
20368;BME280;10343;52.402;9.796;2023-02-28T05:44:02;102594.72;;;3.88;56.53
20368;BME280;10343;52.402;9.796;2023-02-28T05:46:31;102595.50;;;4.65;55.04
20368;BME280;10343;52.402;9.796;2023-02-28T05:48:59;102590.75;;;4.00;56.47
20368;BME280;10343;52.402;9.796;2023-02-28T05:51:27;102602.13;;;4.00;55.94
20368;BME280;10343;52.402;9.796;2023-02-28T05:53:59;102602.13;;;4.52;54.86
20368;BME280;10343;52.402;9.796;2023-02-28T05:56:28;102593.75;;;4.38;55.60
20368;BME280;10343;52.402;9.796;2023-02-28T05:58:56;102591.09;;;4.64;54.96
20368;BME280;10343;52.402;9.796;2023-02-28T06:01:32;102592.78;;;4.62;54.90
20368;BME280;10343;52.402;9.796;2023-02-28T06:04:01;102588.06;;;4.79;54.65
20368;BME280;10343;52.402;9.796;2023-02-28T06:06:30;102589.63;;;4.73;54.37
20368;BME280;10343;52.402;9.796;2023-02-28T06:08:59;102590.63;;;4.77;54.80
20368;BME280;10343;52.402;9.796;2023-02-28T06:11:27;102593.00;;;4.97;54.31
20368;BME280;10343;52.402;9.796;2023-02-28T06:13:57;102594.28;;;4.53;55.02
20368;BME280;10343;52.402;9.796;2023-02-28T06:16:26;102604.13;;;4.07;56.97
20368;BME280;10343;52.402;9.796;2023-02-28T06:18:57;102592.56;;;4.55;56.52
20368;BME280;10343;52.402;9.796;2023-02-28T06:21:26;102597.75;;;4.52;55.87
20368;BME280;10343;52.402;9.796;2023-02-28T06:23:56;102600.88;;;4.97;54.93
20368;BME280;10343;52.402;9.796;2023-02-28T06:26:25;102607.16;;;4.73;55.90
20368;BME280;10343;52.402;9.796;2023-02-28T06:28:53;102604.91;;;4.85;55.57
20368;BME280;10343;52.402;9.796;2023-02-28T06:31:22;102607.53;;;4.85;55.37
20368;BME280;10343;52.402;9.796;2023-02-28T06:33:52;102611.47;;;5.00;55.43
20368;BME280;10343;52.402;9.796;2023-02-28T06:36:22;102605.28;;;5.26;54.67
20368;BME280;10343;52.402;9.796;2023-02-28T06:38:50;102609.38;;;5.47;54.30
20368;BME280;10343;52.402;9.796;2023-02-28T06:41:22;102609.59;;;5.24;54.63
20368;BME280;10343;52.402;9.796;2023-02-28T06:43:50;102622.53;;;5.17;55.78
20368;BME280;10343;52.402;9.796;2023-02-28T06:46:18;102623.81;;;5.31;55.08
20368;BME280;10343;52.402;9.796;2023-02-28T06:48:47;102619.47;;;5.62;54.92
20368;BME280;10343;52.402;9.796;2023-02-28T06:51:17;102620.44;;;5.66;54.88
20368;BME280;10343;52.402;9.796;2023-02-28T06:53:48;102625.78;;;5.69;55.26
20368;BME280;10343;52.402;9.796;2023-02-28T06:56:16;102623.78;;;5.92;54.60
20368;BME280;10343;52.402;9.796;2023-02-28T06:58:46;102627.88;;;6.12;53.94
20368;BME280;10343;52.402;9.796;2023-02-28T07:01:15;102627.69;;;6.05;53.78
20368;BME280;10343;52.402;9.796;2023-02-28T07:03:43;102624.88;;;5.99;53.88
20368;BME280;10343;52.402;9.796;2023-02-28T07:06:11;102628.84;;;6.16;53.81
20368;BME280;10343;52.402;9.796;2023-02-28T07:08:39;102630.56;;;6.16;53.74
20368;BME280;10343;52.402;9.796;2023-02-28T07:11:09;102631.63;;;5.90;53.74
20368;BME280;10343;52.402;9.796;2023-02-28T07:13:37;102629.63;;;6.47;51.70
20368;BME280;10343;52.402;9.796;2023-02-28T07:16:07;102639.13;;;6.07;51.33
20368;BME280;10343;52.402;9.796;2023-02-28T07:18:35;102640.44;;;5.91;51.58
20368;BME280;10343;52.402;9.796;2023-02-28T07:21:05;102646.00;;;6.02;51.41
20368;BME280;10343;52.402;9.796;2023-02-28T07:23:36;102648.34;;;5.60;52.72
20368;BME280;10343;52.402;9.796;2023-02-28T07:26:06;102647.00;;;5.14;54.02
20368;BME280;10343;52.402;9.796;2023-02-28T07:28:35;102652.16;;;5.70;53.67
20368;BME280;10343;52.402;9.796;2023-02-28T07:31:05;102655.13;;;5.52;53.09
20368;BME280;10343;52.402;9.796;2023-02-28T07:33:34;102654.06;;;5.76;52.87
20368;BME280;10343;52.402;9.796;2023-02-28T07:36:06;102654.16;;;5.79;51.62
20368;BME280;10343;52.402;9.796;2023-02-28T07:38:35;102648.66;;;5.41;50.88
20368;BME280;10343;52.402;9.796;2023-02-28T07:41:04;102651.38;;;5.44;51.11
20368;BME280;10343;52.402;9.796;2023-02-28T07:43:32;102655.19;;;6.16;50.31
20368;BME280;10343;52.402;9.796;2023-02-28T07:46:03;102649.31;;;5.94;50.20
20368;BME280;10343;52.402;9.796;2023-02-28T07:48:32;102651.66;;;5.53;50.50
20368;BME280;10343;52.402;9.796;2023-02-28T07:51:00;102658.88;;;5.91;50.54
20368;BME280;10343;52.402;9.796;2023-02-28T07:53:29;102655.28;;;5.57;50.97
20368;BME280;10343;52.402;9.796;2023-02-28T07:55:58;102648.94;;;5.50;50.99
20368;BME280;10343;52.402;9.796;2023-02-28T07:58:28;102653.19;;;6.07;50.78
20368;BME280;10343;52.402;9.796;2023-02-28T08:00:56;102648.66;;;6.02;50.38
20368;BME280;10343;52.402;9.796;2023-02-28T08:03:26;102645.63;;;5.57;50.84
20368;BME280;10343;52.402;9.796;2023-02-28T08:05:54;102645.53;;;6.17;49.64
20368;BME280;10343;52.402;9.796;2023-02-28T08:08:22;102624.28;;;6.44;48.87
20368;BME280;10343;52.402;9.796;2023-02-28T08:10:50;102637.31;;;6.38;49.16
20368;BME280;10343;52.402;9.796;2023-02-28T08:13:18;102634.56;;;6.68;48.60
20368;BME280;10343;52.402;9.796;2023-02-28T08:15:46;102641.09;;;6.48;48.93
20368;BME280;10343;52.402;9.796;2023-02-28T08:18:14;102644.34;;;6.74;48.17
20368;BME280;10343;52.402;9.796;2023-02-28T08:20:43;102638.72;;;6.96;47.45
20368;BME280;10343;52.402;9.796;2023-02-28T08:23:11;102646.44;;;6.17;48.85
20368;BME280;10343;52.402;9.796;2023-02-28T08:25:40;102657.34;;;6.31;49.42
20368;BME280;10343;52.402;9.796;2023-02-28T08:28:08;102644.25;;;6.01;49.61
20368;BME280;10343;52.402;9.796;2023-02-28T08:30:36;102653.97;;;6.37;48.58
20368;BME280;10343;52.402;9.796;2023-02-28T08:33:08;102651.84;;;6.93;47.30
20368;BME280;10343;52.402;9.796;2023-02-28T08:35:36;102649.00;;;6.86;47.68
20368;BME280;10343;52.402;9.796;2023-02-28T08:38:06;102652.81;;;6.97;47.41
20368;BME280;10343;52.402;9.796;2023-02-28T08:40:34;102655.38;;;6.95;47.15
20368;BME280;10343;52.402;9.796;2023-02-28T08:43:02;102651.56;;;7.60;46.03
20368;BME280;10343;52.402;9.796;2023-02-28T08:45:30;102649.19;;;7.74;45.34
20368;BME280;10343;52.402;9.796;2023-02-28T08:47:58;102657.88;;;6.88;47.03
20368;BME280;10343;52.402;9.796;2023-02-28T08:50:28;102661.44;;;6.53;46.62
20368;BME280;10343;52.402;9.796;2023-02-28T08:52:59;102662.59;;;6.29;48.24
20368;BME280;10343;52.402;9.796;2023-02-28T08:55:29;102658.34;;;6.71;48.75
20368;BME280;10343;52.402;9.796;2023-02-28T08:57:57;102652.13;;;7.06;46.81
20368;BME280;10343;52.402;9.796;2023-02-28T09:00:26;102661.97;;;7.13;46.89
20368;BME280;10343;52.402;9.796;2023-02-28T09:02:54;102658.31;;;7.08;46.07
20368;BME280;10343;52.402;9.796;2023-02-28T09:05:22;102656.63;;;7.51;45.09
20368;BME280;10343;52.402;9.796;2023-02-28T09:07:50;102660.03;;;7.45;45.23
20368;BME280;10343;52.402;9.796;2023-02-28T09:10:18;102659.53;;;7.22;45.72
20368;BME280;10343;52.402;9.796;2023-02-28T09:12:47;102665.88;;;7.72;44.97
20368;BME280;10343;52.402;9.796;2023-02-28T09:15:15;102665.09;;;7.35;45.53
20368;BME280;10343;52.402;9.796;2023-02-28T09:17:43;102661.38;;;6.88;46.66
20368;BME280;10343;52.402;9.796;2023-02-28T09:20:15;102658.72;;;7.25;45.87
20368;BME280;10343;52.402;9.796;2023-02-28T09:22:43;102651.31;;;7.92;45.22
20368;BME280;10343;52.402;9.796;2023-02-28T09:25:11;102652.97;;;7.87;45.13
20368;BME280;10343;52.402;9.796;2023-02-28T09:27:39;102653.66;;;8.24;43.62
20368;BME280;10343;52.402;9.796;2023-02-28T09:30:11;102665.81;;;8.14;44.75
20368;BME280;10343;52.402;9.796;2023-02-28T09:32:39;102651.19;;;8.33;44.08
20368;BME280;10343;52.402;9.796;2023-02-28T09:35:08;102648.63;;;8.90;43.13
20368;BME280;10343;52.402;9.796;2023-02-28T09:37:39;102649.03;;;8.61;42.80
20368;BME280;10343;52.402;9.796;2023-02-28T09:40:09;102647.28;;;9.20;42.20
20368;BME280;10343;52.402;9.796;2023-02-28T09:42:38;102658.75;;;8.62;43.20
20368;BME280;10343;52.402;9.796;2023-02-28T09:45:24;102656.09;;;9.19;42.35
20368;BME280;10343;52.402;9.796;2023-02-28T09:47:56;102651.34;;;8.96;42.40
20368;BME280;10343;52.402;9.796;2023-02-28T09:50:31;102654.28;;;9.16;42.43
20368;BME280;10343;52.402;9.796;2023-02-28T09:53:03;102654.78;;;9.52;41.81
20368;BME280;10343;52.402;9.796;2023-02-28T09:55:38;102651.34;;;8.96;41.43
20368;BME280;10343;52.402;9.796;2023-02-28T09:58:18;102660.84;;;7.84;43.49
20368;BME280;10343;52.402;9.796;2023-02-28T10:00:56;102655.75;;;7.95;43.32
20368;BME280;10343;52.402;9.796;2023-02-28T10:03:30;102648.00;;;9.08;41.92
20368;BME280;10343;52.402;9.796;2023-02-28T10:06:07;102651.16;;;8.84;40.76
20368;BME280;10343;52.402;9.796;2023-02-28T10:08:45;102660.38;;;8.07;41.87
20368;BME280;10343;52.402;9.796;2023-02-28T10:11:16;102649.41;;;8.32;42.16
20368;BME280;10343;52.402;9.796;2023-02-28T10:13:52;102652.69;;;9.29;40.72
20368;BME280;10343;52.402;9.796;2023-02-28T10:16:28;102645.47;;;9.16;40.22
20368;BME280;10343;52.402;9.796;2023-02-28T10:19:03;102645.50;;;9.19;39.98
20368;BME280;10343;52.402;9.796;2023-02-28T10:21:35;102652.31;;;9.01;40.56
20368;BME280;10343;52.402;9.796;2023-02-28T10:24:16;102650.69;;;9.13;38.93
20368;BME280;10343;52.402;9.796;2023-02-28T10:26:48;102649.78;;;9.11;38.92
20368;BME280;10343;52.402;9.796;2023-02-28T10:29:16;102641.72;;;9.67;38.48
20368;BME280;10343;52.402;9.796;2023-02-28T10:31:45;102644.69;;;9.98;37.30
20368;BME280;10343;52.402;9.796;2023-02-28T10:34:14;102636.38;;;10.49;37.13
20368;BME280;10343;52.402;9.796;2023-02-28T10:36:42;102640.56;;;10.25;36.92
20368;BME280;10343;52.402;9.796;2023-02-28T10:39:37;102645.22;;;9.66;37.36
20368;BME280;10343;52.402;9.796;2023-02-28T10:42:19;102649.50;;;8.39;38.86
20368;BME280;10343;52.402;9.796;2023-02-28T10:44:47;102647.81;;;8.44;39.54
20368;BME280;10343;52.402;9.796;2023-02-28T10:47:17;102646.41;;;9.23;39.34
20368;BME280;10343;52.402;9.796;2023-02-28T10:49:47;102643.78;;;9.93;37.17
20368;BME280;10343;52.402;9.796;2023-02-28T10:52:35;102654.63;;;8.81;36.78
20368;BME280;10343;52.402;9.796;2023-02-28T10:55:19;102649.31;;;9.41;36.66
20368;BME280;10343;52.402;9.796;2023-02-28T10:57:47;102645.72;;;9.34;36.67
20368;BME280;10343;52.402;9.796;2023-02-28T11:00:17;102648.50;;;9.47;35.15
20368;BME280;10343;52.402;9.796;2023-02-28T11:02:49;102645.53;;;9.22;35.65
20368;BME280;10343;52.402;9.796;2023-02-28T11:05:26;102640.97;;;9.81;34.89
20368;BME280;10343;52.402;9.796;2023-02-28T11:07:55;102631.50;;;9.29;35.27
20368;BME280;10343;52.402;9.796;2023-02-28T11:10:27;102641.53;;;8.89;36.13
20368;BME280;10343;52.402;9.796;2023-02-28T11:12:57;102632.81;;;9.64;34.62
20368;BME280;10343;52.402;9.796;2023-02-28T11:15:28;102630.56;;;9.96;34.32
20368;BME280;10343;52.402;9.796;2023-02-28T11:18:00;102637.00;;;9.45;32.86
20368;BME280;10343;52.402;9.796;2023-02-28T11:20:31;102631.03;;;9.61;32.83
20368;BME280;10343;52.402;9.796;2023-02-28T11:23:02;102625.22;;;9.93;32.13
20368;BME280;10343;52.402;9.796;2023-02-28T11:25:32;102625.88;;;9.05;33.92
20368;BME280;10343;52.402;9.796;2023-02-28T11:28:02;102630.06;;;8.89;33.83
20368;BME280;10343;52.402;9.796;2023-02-28T11:30:35;102618.41;;;10.20;32.53
20368;BME280;10343;52.402;9.796;2023-02-28T11:33:27;102620.97;;;10.12;32.53
20368;BME280;10343;52.402;9.796;2023-02-28T11:35:59;102614.16;;;10.34;33.32
20368;BME280;10343;52.402;9.796;2023-02-28T11:38:28;102608.78;;;10.31;33.56
20368;BME280;10343;52.402;9.796;2023-02-28T11:41:08;102609.13;;;10.70;32.77
20368;BME280;10343;52.402;9.796;2023-02-28T11:43:55;102611.34;;;9.41;35.41
20368;BME280;10343;52.402;9.796;2023-02-28T11:46:32;102614.28;;;9.62;35.36
20368;BME280;10343;52.402;9.796;2023-02-28T11:49:14;102610.47;;;9.39;35.50
20368;BME280;10343;52.402;9.796;2023-02-28T11:51:53;102615.63;;;9.29;35.97
20368;BME280;10343;52.402;9.796;2023-02-28T11:54:34;102617.72;;;9.55;36.32
20368;BME280;10343;52.402;9.796;2023-02-28T11:57:14;102608.31;;;10.79;34.82
20368;BME280;10343;52.402;9.796;2023-02-28T11:59:54;102606.81;;;9.30;36.78
20368;BME280;10343;52.402;9.796;2023-02-28T12:02:26;102606.13;;;9.45;36.52
20368;BME280;10343;52.402;9.796;2023-02-28T12:05:13;102597.41;;;10.39;35.38
20368;BME280;10343;52.402;9.796;2023-02-28T12:07:52;102602.34;;;10.01;35.25
20368;BME280;10343;52.402;9.796;2023-02-28T12:10:26;102588.25;;;10.06;35.36
20368;BME280;10343;52.402;9.796;2023-02-28T12:13:04;102591.22;;;9.52;35.71
20368;BME280;10343;52.402;9.796;2023-02-28T12:16:00;102596.69;;;8.98;36.09
20368;BME280;10343;52.402;9.796;2023-02-28T12:18:44;102596.41;;;9.46;36.41
20368;BME280;10343;52.402;9.796;2023-02-28T12:21:24;102583.06;;;10.18;35.33
20368;BME280;10343;52.402;9.796;2023-02-28T12:24:25;102581.13;;;10.01;35.19
20368;BME280;10343;52.402;9.796;2023-02-28T12:26:59;102572.88;;;10.74;34.20
20368;BME280;10343;52.402;9.796;2023-02-28T12:29:30;102570.78;;;10.32;34.31
20368;BME280;10343;52.402;9.796;2023-02-28T12:32:01;102571.53;;;10.16;34.75
20368;BME280;10343;52.402;9.796;2023-02-28T12:34:35;102562.63;;;10.09;35.36
20368;BME280;10343;52.402;9.796;2023-02-28T12:37:12;102569.56;;;11.12;34.45
20368;BME280;10343;52.402;9.796;2023-02-28T12:39:46;102570.78;;;10.31;34.73
20368;BME280;10343;52.402;9.796;2023-02-28T12:42:19;102571.06;;;9.68;35.50
20368;BME280;10343;52.402;9.796;2023-02-28T12:44:54;102552.88;;;10.03;35.56
20368;BME280;10343;52.402;9.796;2023-02-28T12:47:24;102550.56;;;10.44;34.72
20368;BME280;10343;52.402;9.796;2023-02-28T12:49:55;102546.22;;;10.53;34.74
20368;BME280;10343;52.402;9.796;2023-02-28T12:52:33;102549.38;;;10.05;35.50
20368;BME280;10343;52.402;9.796;2023-02-28T12:55:10;102557.97;;;9.82;35.20
20368;BME280;10343;52.402;9.796;2023-02-28T12:57:45;102554.06;;;9.46;36.36
20368;BME280;10343;52.402;9.796;2023-02-28T13:00:19;102544.78;;;9.85;36.24
20368;BME280;10343;52.402;9.796;2023-02-28T13:03:11;102530.66;;;11.23;34.40
20368;BME280;10343;52.402;9.796;2023-02-28T13:06:03;102523.00;;;10.23;35.33
20368;BME280;10343;52.402;9.796;2023-02-28T13:08:59;102529.34;;;10.42;35.77
20368;BME280;10343;52.402;9.796;2023-02-28T13:11:33;102516.53;;;11.27;34.34
20368;BME280;10343;52.402;9.796;2023-02-28T13:14:20;102510.38;;;11.42;33.93
20368;BME280;10343;52.402;9.796;2023-02-28T13:16:59;102507.56;;;11.00;34.11
20368;BME280;10343;52.402;9.796;2023-02-28T13:19:30;102502.28;;;11.03;34.56
20368;BME280;10343;52.402;9.796;2023-02-28T13:21:59;102501.47;;;11.29;33.50
20368;BME280;10343;52.402;9.796;2023-02-28T13:24:45;102506.00;;;11.83;33.23
20368;BME280;10343;52.402;9.796;2023-02-28T13:27:32;102502.44;;;11.56;33.54
20368;BME280;10343;52.402;9.796;2023-02-28T13:33:25;102502.41;;;11.47;33.96
20368;BME280;10343;52.402;9.796;2023-02-28T13:36:07;102499.81;;;12.15;33.01
20368;BME280;10343;52.402;9.796;2023-02-28T13:38:40;102503.28;;;11.44;33.60